sensor_id;sensor_type;location;lat;lon;timestamp;temperature;humidity
11963;DHT22;62678;52.130;5.584;2023-09-19T00:00:42;15.30;99.90
11963;DHT22;62678;52.130;5.584;2023-09-19T00:03:10;15.40;99.90
11963;DHT22;62678;52.130;5.584;2023-09-19T00:05:39;15.30;99.90
11963;DHT22;62678;52.130;5.584;2023-09-19T00:08:09;15.30;99.90
11963;DHT22;62678;52.130;5.584;2023-09-19T00:10:39;15.30;99.90
11963;DHT22;62678;52.130;5.584;2023-09-19T00:13:07;15.30;99.90
11963;DHT22;62678;52.130;5.584;2023-09-19T00:15:37;15.30;99.90
11963;DHT22;62678;52.130;5.584;2023-09-19T00:18:05;15.20;99.90
11963;DHT22;62678;52.130;5.584;2023-09-19T00:20:35;15.20;99.90
11963;DHT22;62678;52.130;5.584;2023-09-19T00:23:04;15.10;99.90
11963;DHT22;62678;52.130;5.584;2023-09-19T00:25:34;15.10;99.90
11963;DHT22;62678;52.130;5.584;2023-09-19T00:28:03;15.20;99.90
11963;DHT22;62678;52.130;5.584;2023-09-19T00:30:30;15.10;99.90
11963;DHT22;62678;52.130;5.584;2023-09-19T00:32:58;15.10;99.90
11963;DHT22;62678;52.130;5.584;2023-09-19T00:35:26;15.10;99.90
11963;DHT22;62678;52.130;5.584;2023-09-19T00:37:54;15.10;99.90
11963;DHT22;62678;52.130;5.584;2023-09-19T00:40:23;15.10;99.90
11963;DHT22;62678;52.130;5.584;2023-09-19T00:42:51;15.10;99.90
11963;DHT22;62678;52.130;5.584;2023-09-19T00:45:24;15.10;99.90
11963;DHT22;62678;52.130;5.584;2023-09-19T00:47:54;15.00;99.90
11963;DHT22;62678;52.130;5.584;2023-09-19T00:50:24;15.10;99.90
11963;DHT22;62678;52.130;5.584;2023-09-19T00:52:54;15.10;99.90
11963;DHT22;62678;52.130;5.584;2023-09-19T00:55:24;15.20;99.90
11963;DHT22;62678;52.130;5.584;2023-09-19T00:57:52;15.20;99.90
11963;DHT22;62678;52.130;5.584;2023-09-19T01:00:19;15.20;99.90
11963;DHT22;62678;52.130;5.584;2023-09-19T01:02:47;15.20;99.90
11963;DHT22;62678;52.130;5.584;2023-09-19T01:05:14;15.20;99.90
11963;DHT22;62678;52.130;5.584;2023-09-19T01:07:41;15.20;99.90
11963;DHT22;62678;52.130;5.584;2023-09-19T01:10:12;15.30;99.90
11963;DHT22;62678;52.130;5.584;2023-09-19T01:12:48;15.30;99.90
11963;DHT22;62678;52.130;5.584;2023-09-19T01:15:27;15.30;99.90
11963;DHT22;62678;52.130;5.584;2023-09-19T01:18:00;15.30;99.90
11963;DHT22;62678;52.130;5.584;2023-09-19T01:20:39;15.30;99.90
11963;DHT22;62678;52.130;5.584;2023-09-19T01:23:14;15.40;99.90
11963;DHT22;62678;52.130;5.584;2023-09-19T01:26:10;15.40;99.90
11963;DHT22;62678;52.130;5.584;2023-09-19T01:28:53;15.40;99.90
11963;DHT22;62678;52.130;5.584;2023-09-19T01:31:28;15.40;99.90
11963;DHT22;62678;52.130;5.584;2023-09-19T01:34:00;15.30;99.90
11963;DHT22;62678;52.130;5.584;2023-09-19T01:36:31;15.30;99.90
11963;DHT22;62678;52.130;5.584;2023-09-19T01:39:02;15.30;99.90
11963;DHT22;62678;52.130;5.584;2023-09-19T01:41:45;15.40;99.90
11963;DHT22;62678;52.130;5.584;2023-09-19T01:44:21;15.40;99.90
11963;DHT22;62678;52.130;5.584;2023-09-19T01:46:50;15.40;99.90
11963;DHT22;62678;52.130;5.584;2023-09-19T01:49:30;15.40;99.90
11963;DHT22;62678;52.130;5.584;2023-09-19T01:52:04;15.40;99.90
11963;DHT22;62678;52.130;5.584;2023-09-19T01:54:36;15.40;99.90
11963;DHT22;62678;52.130;5.584;2023-09-19T01:57:09;15.40;99.90
11963;DHT22;62678;52.130;5.584;2023-09-19T01:59:45;15.40;99.90
11963;DHT22;62678;52.130;5.584;2023-09-19T02:02:17;15.40;99.90
11963;DHT22;62678;52.130;5.584;2023-09-19T02:04:44;15.40;99.90
11963;DHT22;62678;52.130;5.584;2023-09-19T02:07:11;15.30;99.90
11963;DHT22;62678;52.130;5.584;2023-09-19T02:09:42;15.30;99.90
11963;DHT22;62678;52.130;5.584;2023-09-19T02:12:09;15.20;99.90
11963;DHT22;62678;52.130;5.584;2023-09-19T02:14:36;15.20;99.90
11963;DHT22;62678;52.130;5.584;2023-09-19T02:17:04;15.20;99.90
11963;DHT22;62678;52.130;5.584;2023-09-19T02:19:34;15.10;99.90
11963;DHT22;62678;52.130;5.584;2023-09-19T02:22:02;15.00;99.90
11963;DHT22;62678;52.130;5.584;2023-09-19T02:24:36;15.00;99.90
11963;DHT22;62678;52.130;5.584;2023-09-19T02:27:04;15.00;99.90
11963;DHT22;62678;52.130;5.584;2023-09-19T02:29:33;14.90;99.90
11963;DHT22;62678;52.130;5.584;2023-09-19T02:32:00;14.90;99.90
11963;DHT22;62678;52.130;5.584;2023-09-19T02:34:28;14.90;99.90
11963;DHT22;62678;52.130;5.584;2023-09-19T02:36:56;14.70;99.90
11963;DHT22;62678;52.130;5.584;2023-09-19T02:39:23;14.80;99.90
11963;DHT22;62678;52.130;5.584;2023-09-19T02:41:50;14.80;99.90
11963;DHT22;62678;52.130;5.584;2023-09-19T02:44:17;14.80;99.90
11963;DHT22;62678;52.130;5.584;2023-09-19T02:46:45;14.80;99.90
11963;DHT22;62678;52.130;5.584;2023-09-19T02:49:13;14.70;99.90
11963;DHT22;62678;52.130;5.584;2023-09-19T02:51:43;14.70;99.90
11963;DHT22;62678;52.130;5.584;2023-09-19T02:54:12;14.60;99.90
11963;DHT22;62678;52.130;5.584;2023-09-19T02:56:41;14.60;99.90
11963;DHT22;62678;52.130;5.584;2023-09-19T02:59:08;14.60;99.90
11963;DHT22;62678;52.130;5.584;2023-09-19T03:01:36;14.60;99.90
11963;DHT22;62678;52.130;5.584;2023-09-19T03:04:04;14.50;99.90
11963;DHT22;62678;52.130;5.584;2023-09-19T03:06:33;14.40;99.90
11963;DHT22;62678;52.130;5.584;2023-09-19T03:09:00;14.40;99.90
11963;DHT22;62678;52.130;5.584;2023-09-19T03:11:30;14.40;99.90
11963;DHT22;62678;52.130;5.584;2023-09-19T03:13:57;14.30;99.90
11963;DHT22;62678;52.130;5.584;2023-09-19T03:16:24;14.30;99.90
11963;DHT22;62678;52.130;5.584;2023-09-19T03:18:51;14.20;99.90
11963;DHT22;62678;52.130;5.584;2023-09-19T03:21:20;14.20;99.90
11963;DHT22;62678;52.130;5.584;2023-09-19T03:23:47;14.10;99.90
11963;DHT22;62678;52.130;5.584;2023-09-19T03:26:14;14.10;99.90
11963;DHT22;62678;52.130;5.584;2023-09-19T03:28:43;14.10;99.90
11963;DHT22;62678;52.130;5.584;2023-09-19T03:31:11;14.00;99.90
11963;DHT22;62678;52.130;5.584;2023-09-19T03:33:38;13.90;99.90
11963;DHT22;62678;52.130;5.584;2023-09-19T03:36:05;14.00;99.90
11963;DHT22;62678;52.130;5.584;2023-09-19T03:38:33;13.90;99.90
11963;DHT22;62678;52.130;5.584;2023-09-19T03:41:01;13.90;99.90
11963;DHT22;62678;52.130;5.584;2023-09-19T03:43:28;13.90;99.90
11963;DHT22;62678;52.130;5.584;2023-09-19T03:45:56;13.80;99.90
11963;DHT22;62678;52.130;5.584;2023-09-19T03:48:23;13.80;99.90
11963;DHT22;62678;52.130;5.584;2023-09-19T03:50:50;13.80;99.90
11963;DHT22;62678;52.130;5.584;2023-09-19T03:53:18;13.70;99.90
11963;DHT22;62678;52.130;5.584;2023-09-19T03:55:45;13.70;99.90
11963;DHT22;62678;52.130;5.584;2023-09-19T03:58:12;13.60;99.90
11963;DHT22;62678;52.130;5.584;2023-09-19T04:00:39;13.60;99.90
11963;DHT22;62678;52.130;5.584;2023-09-19T04:03:08;13.60;99.90
11963;DHT22;62678;52.130;5.584;2023-09-19T04:05:36;13.60;99.90
11963;DHT22;62678;52.130;5.584;2023-09-19T04:08:04;13.60;99.90
11963;DHT22;62678;52.130;5.584;2023-09-19T04:10:31;13.50;99.90
11963;DHT22;62678;52.130;5.584;2023-09-19T04:12:58;13.50;99.90
11963;DHT22;62678;52.130;5.584;2023-09-19T04:15:25;13.50;99.90
11963;DHT22;62678;52.130;5.584;2023-09-19T04:17:52;13.50;99.90
11963;DHT22;62678;52.130;5.584;2023-09-19T04:20:21;13.50;99.90
11963;DHT22;62678;52.130;5.584;2023-09-19T04:22:49;13.50;99.90
11963;DHT22;62678;52.130;5.584;2023-09-19T04:25:16;13.40;99.90
11963;DHT22;62678;52.130;5.584;2023-09-19T04:27:44;13.40;99.90
11963;DHT22;62678;52.130;5.584;2023-09-19T04:30:12;13.40;99.90
11963;DHT22;62678;52.130;5.584;2023-09-19T04:32:41;13.40;99.90
11963;DHT22;62678;52.130;5.584;2023-09-19T04:35:09;13.40;99.90
11963;DHT22;62678;52.130;5.584;2023-09-19T04:37:39;13.50;99.90
11963;DHT22;62678;52.130;5.584;2023-09-19T04:40:08;13.40;99.90
11963;DHT22;62678;52.130;5.584;2023-09-19T04:42:39;13.50;99.90
11963;DHT22;62678;52.130;5.584;2023-09-19T04:45:07;13.50;99.90
11963;DHT22;62678;52.130;5.584;2023-09-19T04:47:35;13.40;99.90
11963;DHT22;62678;52.130;5.584;2023-09-19T04:50:06;13.40;99.90
11963;DHT22;62678;52.130;5.584;2023-09-19T04:52:33;13.40;99.90
11963;DHT22;62678;52.130;5.584;2023-09-19T04:55:02;13.40;99.90
11963;DHT22;62678;52.130;5.584;2023-09-19T04:57:30;13.40;99.90
11963;DHT22;62678;52.130;5.584;2023-09-19T04:59:58;13.50;99.90
11963;DHT22;62678;52.130;5.584;2023-09-19T05:02:25;13.50;99.90
11963;DHT22;62678;52.130;5.584;2023-09-19T05:04:56;13.50;99.90
11963;DHT22;62678;52.130;5.584;2023-09-19T05:07:24;13.50;99.90
11963;DHT22;62678;52.130;5.584;2023-09-19T05:09:52;13.40;99.90
11963;DHT22;62678;52.130;5.584;2023-09-19T05:12:20;13.40;99.90
11963;DHT22;62678;52.130;5.584;2023-09-19T05:14:47;13.50;99.90
11963;DHT22;62678;52.130;5.584;2023-09-19T05:17:14;13.40;99.90
11963;DHT22;62678;52.130;5.584;2023-09-19T05:19:42;13.50;99.90
11963;DHT22;62678;52.130;5.584;2023-09-19T05:22:09;13.50;99.90
11963;DHT22;62678;52.130;5.584;2023-09-19T05:24:38;13.50;99.90
11963;DHT22;62678;52.130;5.584;2023-09-19T05:27:05;13.50;99.90
11963;DHT22;62678;52.130;5.584;2023-09-19T05:29:34;13.50;99.90
11963;DHT22;62678;52.130;5.584;2023-09-19T05:32:01;13.60;99.90
11963;DHT22;62678;52.130;5.584;2023-09-19T05:34:29;13.60;99.90
11963;DHT22;62678;52.130;5.584;2023-09-19T05:36:56;13.60;99.90
11963;DHT22;62678;52.130;5.584;2023-09-19T05:39:23;13.60;99.90
11963;DHT22;62678;52.130;5.584;2023-09-19T05:41:50;13.60;99.90
11963;DHT22;62678;52.130;5.584;2023-09-19T05:44:17;13.70;99.90
11963;DHT22;62678;52.130;5.584;2023-09-19T05:46:45;13.60;99.90
11963;DHT22;62678;52.130;5.584;2023-09-19T05:49:13;13.80;99.90
11963;DHT22;62678;52.130;5.584;2023-09-19T05:51:41;13.80;99.90
11963;DHT22;62678;52.130;5.584;2023-09-19T05:54:08;13.70;99.90
11963;DHT22;62678;52.130;5.584;2023-09-19T05:56:36;13.80;99.90
11963;DHT22;62678;52.130;5.584;2023-09-19T05:59:06;13.70;99.90
11963;DHT22;62678;52.130;5.584;2023-09-19T06:01:33;13.80;99.90
11963;DHT22;62678;52.130;5.584;2023-09-19T06:04:02;13.80;99.90
11963;DHT22;62678;52.130;5.584;2023-09-19T06:06:30;13.90;99.90
11963;DHT22;62678;52.130;5.584;2023-09-19T06:08:59;14.00;99.90
11963;DHT22;62678;52.130;5.584;2023-09-19T06:11:26;14.10;99.90
11963;DHT22;62678;52.130;5.584;2023-09-19T06:13:55;14.20;99.90
11963;DHT22;62678;52.130;5.584;2023-09-19T06:16:22;14.20;99.90
11963;DHT22;62678;52.130;5.584;2023-09-19T06:18:49;14.20;99.90
11963;DHT22;62678;52.130;5.584;2023-09-19T06:21:19;14.20;99.90
11963;DHT22;62678;52.130;5.584;2023-09-19T06:23:47;14.20;99.90
11963;DHT22;62678;52.130;5.584;2023-09-19T06:26:14;14.30;99.90
11963;DHT22;62678;52.130;5.584;2023-09-19T06:28:41;14.30;99.90
11963;DHT22;62678;52.130;5.584;2023-09-19T06:31:08;14.40;99.90
11963;DHT22;62678;52.130;5.584;2023-09-19T06:33:35;14.40;99.90
11963;DHT22;62678;52.130;5.584;2023-09-19T06:36:04;14.50;99.90
11963;DHT22;62678;52.130;5.584;2023-09-19T06:38:34;14.60;99.90
11963;DHT22;62678;52.130;5.584;2023-09-19T06:41:02;14.60;99.90
11963;DHT22;62678;52.130;5.584;2023-09-19T06:43:31;14.60;99.90
11963;DHT22;62678;52.130;5.584;2023-09-19T06:45:58;14.70;99.90
11963;DHT22;62678;52.130;5.584;2023-09-19T06:48:26;14.70;99.90
11963;DHT22;62678;52.130;5.584;2023-09-19T06:50:54;14.70;99.90
11963;DHT22;62678;52.130;5.584;2023-09-19T06:53:24;14.80;99.90
11963;DHT22;62678;52.130;5.584;2023-09-19T06:55:53;14.80;99.90
11963;DHT22;62678;52.130;5.584;2023-09-19T06:58:20;14.90;99.90
11963;DHT22;62678;52.130;5.584;2023-09-19T07:00:47;14.80;99.90
11963;DHT22;62678;52.130;5.584;2023-09-19T07:03:16;14.80;99.90
11963;DHT22;62678;52.130;5.584;2023-09-19T07:05:48;14.90;99.90
11963;DHT22;62678;52.130;5.584;2023-09-19T07:08:15;15.00;99.90
11963;DHT22;62678;52.130;5.584;2023-09-19T07:10:44;15.10;99.90
11963;DHT22;62678;52.130;5.584;2023-09-19T07:13:15;15.10;99.90
11963;DHT22;62678;52.130;5.584;2023-09-19T07:15:44;15.20;99.90
11963;DHT22;62678;52.130;5.584;2023-09-19T07:18:13;15.20;99.90
11963;DHT22;62678;52.130;5.584;2023-09-19T07:20:42;15.20;99.90
11963;DHT22;62678;52.130;5.584;2023-09-19T07:23:14;15.30;99.90
11963;DHT22;62678;52.130;5.584;2023-09-19T07:25:41;15.30;99.90
11963;DHT22;62678;52.130;5.584;2023-09-19T07:28:09;15.40;99.90
11963;DHT22;62678;52.130;5.584;2023-09-19T07:30:37;15.40;99.90
11963;DHT22;62678;52.130;5.584;2023-09-19T07:33:07;15.50;99.90
11963;DHT22;62678;52.130;5.584;2023-09-19T07:35:36;15.60;99.90
11963;DHT22;62678;52.130;5.584;2023-09-19T07:38:05;15.50;99.90
11963;DHT22;62678;52.130;5.584;2023-09-19T07:40:32;15.60;99.90
11963;DHT22;62678;52.130;5.584;2023-09-19T07:42:59;15.60;99.90
11963;DHT22;62678;52.130;5.584;2023-09-19T07:45:27;15.60;99.90
11963;DHT22;62678;52.130;5.584;2023-09-19T07:47:57;15.60;99.90
11963;DHT22;62678;52.130;5.584;2023-09-19T07:50:26;15.80;99.90
11963;DHT22;62678;52.130;5.584;2023-09-19T07:52:54;15.80;99.90
11963;DHT22;62678;52.130;5.584;2023-09-19T07:55:22;15.90;99.90
11963;DHT22;62678;52.130;5.584;2023-09-19T07:57:51;15.80;99.90
11963;DHT22;62678;52.130;5.584;2023-09-19T08:00:18;16.00;99.90
11963;DHT22;62678;52.130;5.584;2023-09-19T08:02:45;16.10;99.90
11963;DHT22;62678;52.130;5.584;2023-09-19T08:05:14;16.10;99.90
11963;DHT22;62678;52.130;5.584;2023-09-19T08:07:43;16.10;99.90
11963;DHT22;62678;52.130;5.584;2023-09-19T08:10:11;16.10;99.90
11963;DHT22;62678;52.130;5.584;2023-09-19T08:12:39;16.10;99.90
11963;DHT22;62678;52.130;5.584;2023-09-19T08:15:12;16.20;99.90
11963;DHT22;62678;52.130;5.584;2023-09-19T08:17:39;16.20;99.90
11963;DHT22;62678;52.130;5.584;2023-09-19T08:20:07;16.30;99.90
11963;DHT22;62678;52.130;5.584;2023-09-19T08:22:43;16.50;99.90
11963;DHT22;62678;52.130;5.584;2023-09-19T08:25:13;16.50;99.90
11963;DHT22;62678;52.130;5.584;2023-09-19T08:27:42;16.50;99.90
11963;DHT22;62678;52.130;5.584;2023-09-19T08:30:11;16.50;99.90
11963;DHT22;62678;52.130;5.584;2023-09-19T08:32:38;16.70;99.90
11963;DHT22;62678;52.130;5.584;2023-09-19T08:35:08;16.80;99.90
11963;DHT22;62678;52.130;5.584;2023-09-19T08:37:36;16.80;99.90
11963;DHT22;62678;52.130;5.584;2023-09-19T08:40:05;16.80;99.90
11963;DHT22;62678;52.130;5.584;2023-09-19T08:42:47;16.90;99.90
11963;DHT22;62678;52.130;5.584;2023-09-19T08:45:16;17.10;99.90
11963;DHT22;62678;52.130;5.584;2023-09-19T08:47:47;17.30;99.90
11963;DHT22;62678;52.130;5.584;2023-09-19T08:50:19;17.20;99.90
11963;DHT22;62678;52.130;5.584;2023-09-19T08:52:51;17.10;99.90
11963;DHT22;62678;52.130;5.584;2023-09-19T08:55:26;17.20;99.90
11963;DHT22;62678;52.130;5.584;2023-09-19T08:58:00;17.20;99.90
11963;DHT22;62678;52.130;5.584;2023-09-19T09:00:28;17.30;99.90
11963;DHT22;62678;52.130;5.584;2023-09-19T09:02:57;17.30;99.90
11963;DHT22;62678;52.130;5.584;2023-09-19T09:05:27;17.40;99.90
11963;DHT22;62678;52.130;5.584;2023-09-19T09:07:55;17.40;99.90
11963;DHT22;62678;52.130;5.584;2023-09-19T09:10:25;17.50;99.90
11963;DHT22;62678;52.130;5.584;2023-09-19T09:12:53;17.50;99.90
11963;DHT22;62678;52.130;5.584;2023-09-19T09:15:22;17.60;99.90
11963;DHT22;62678;52.130;5.584;2023-09-19T09:17:49;17.80;99.90
11963;DHT22;62678;52.130;5.584;2023-09-19T09:20:18;18.00;99.90
11963;DHT22;62678;52.130;5.584;2023-09-19T09:22:52;18.00;99.90
11963;DHT22;62678;52.130;5.584;2023-09-19T09:25:20;18.00;99.90
11963;DHT22;62678;52.130;5.584;2023-09-19T09:28:00;18.10;99.90
11963;DHT22;62678;52.130;5.584;2023-09-19T09:30:34;18.10;99.90
11963;DHT22;62678;52.130;5.584;2023-09-19T09:33:09;18.10;99.90
11963;DHT22;62678;52.130;5.584;2023-09-19T09:35:37;18.10;99.90
11963;DHT22;62678;52.130;5.584;2023-09-19T09:38:13;18.00;99.90
11963;DHT22;62678;52.130;5.584;2023-09-19T09:40:49;18.10;99.90
11963;DHT22;62678;52.130;5.584;2023-09-19T09:43:33;18.20;99.90
11963;DHT22;62678;52.130;5.584;2023-09-19T09:46:12;18.30;99.90
11963;DHT22;62678;52.130;5.584;2023-09-19T09:48:59;18.30;99.90
11963;DHT22;62678;52.130;5.584;2023-09-19T09:51:45;18.40;99.90
11963;DHT22;62678;52.130;5.584;2023-09-19T09:54:15;18.80;99.90
11963;DHT22;62678;52.130;5.584;2023-09-19T09:56:53;19.00;99.90
11963;DHT22;62678;52.130;5.584;2023-09-19T09:59:45;19.00;99.90
11963;DHT22;62678;52.130;5.584;2023-09-19T10:02:17;19.00;99.90
11963;DHT22;62678;52.130;5.584;2023-09-19T10:04:50;18.90;99.90
11963;DHT22;62678;52.130;5.584;2023-09-19T10:07:40;18.80;99.90
11963;DHT22;62678;52.130;5.584;2023-09-19T10:10:13;18.80;99.90
11963;DHT22;62678;52.130;5.584;2023-09-19T10:12:44;19.10;99.90
11963;DHT22;62678;52.130;5.584;2023-09-19T10:15:18;19.40;99.90
11963;DHT22;62678;52.130;5.584;2023-09-19T10:17:47;19.30;99.90
11963;DHT22;62678;52.130;5.584;2023-09-19T10:20:15;19.20;99.90
11963;DHT22;62678;52.130;5.584;2023-09-19T10:23:05;19.30;99.90
11963;DHT22;62678;52.130;5.584;2023-09-19T10:25:37;19.30;99.90
11963;DHT22;62678;52.130;5.584;2023-09-19T10:28:06;19.10;99.90
11963;DHT22;62678;52.130;5.584;2023-09-19T10:30:38;18.90;99.90
11963;DHT22;62678;52.130;5.584;2023-09-19T10:33:11;18.80;99.90
11963;DHT22;62678;52.130;5.584;2023-09-19T10:35:40;18.60;99.90
11963;DHT22;62678;52.130;5.584;2023-09-19T10:38:10;18.60;99.90
11963;DHT22;62678;52.130;5.584;2023-09-19T10:40:38;18.80;99.90
11963;DHT22;62678;52.130;5.584;2023-09-19T10:43:11;18.80;99.90
11963;DHT22;62678;52.130;5.584;2023-09-19T10:45:41;18.70;99.90
11963;DHT22;62678;52.130;5.584;2023-09-19T10:48:10;18.90;99.90
11963;DHT22;62678;52.130;5.584;2023-09-19T10:50:44;19.00;99.90
11963;DHT22;62678;52.130;5.584;2023-09-19T10:53:13;19.20;99.90
11963;DHT22;62678;52.130;5.584;2023-09-19T10:55:47;19.60;99.90
11963;DHT22;62678;52.130;5.584;2023-09-19T10:58:25;19.70;94.30
11963;DHT22;62678;52.130;5.584;2023-09-19T11:00:57;19.40;74.20
11963;DHT22;62678;52.130;5.584;2023-09-19T11:03:28;19.30;99.90
11963;DHT22;62678;52.130;5.584;2023-09-19T11:06:05;19.30;99.90
11963;DHT22;62678;52.130;5.584;2023-09-19T11:08:54;19.60;74.30
11963;DHT22;62678;52.130;5.584;2023-09-19T11:11:41;19.70;95.10
11963;DHT22;62678;52.130;5.584;2023-09-19T11:14:29;19.80;92.00
11963;DHT22;62678;52.130;5.584;2023-09-19T11:20:19;19.50;94.20
11963;DHT22;62678;52.130;5.584;2023-09-19T11:23:20;19.80;78.90
11963;DHT22;62678;52.130;5.584;2023-09-19T11:25:50;20.00;71.70
11963;DHT22;62678;52.130;5.584;2023-09-19T11:28:34;20.00;55.30
11963;DHT22;62678;52.130;5.584;2023-09-19T11:34:40;20.10;39.80
11963;DHT22;62678;52.130;5.584;2023-09-19T11:40:33;20.30;42.90
11963;DHT22;62678;52.130;5.584;2023-09-19T11:43:30;20.30;45.50
11963;DHT22;62678;52.130;5.584;2023-09-19T11:46:06;20.20;46.60
11963;DHT22;62678;52.130;5.584;2023-09-19T11:48:35;20.00;39.90
11963;DHT22;62678;52.130;5.584;2023-09-19T11:51:11;20.10;37.50
11963;DHT22;62678;52.130;5.584;2023-09-19T11:53:45;19.80;29.00
11963;DHT22;62678;52.130;5.584;2023-09-19T11:56:16;19.80;35.10
11963;DHT22;62678;52.130;5.584;2023-09-19T11:58:44;19.60;31.60
11963;DHT22;62678;52.130;5.584;2023-09-19T12:01:13;19.70;39.70
11963;DHT22;62678;52.130;5.584;2023-09-19T12:03:47;19.80;37.30
11963;DHT22;62678;52.130;5.584;2023-09-19T12:06:15;20.00;39.60
11963;DHT22;62678;52.130;5.584;2023-09-19T12:08:42;20.10;31.90
11963;DHT22;62678;52.130;5.584;2023-09-19T12:11:14;20.00;30.80
11963;DHT22;62678;52.130;5.584;2023-09-19T12:13:43;19.90;30.00
11963;DHT22;62678;52.130;5.584;2023-09-19T12:16:15;19.90;35.10
11963;DHT22;62678;52.130;5.584;2023-09-19T12:18:43;19.90;35.90
11963;DHT22;62678;52.130;5.584;2023-09-19T12:21:28;19.90;34.30
11963;DHT22;62678;52.130;5.584;2023-09-19T12:24:04;19.80;41.40
11963;DHT22;62678;52.130;5.584;2023-09-19T12:26:39;19.90;28.10
11963;DHT22;62678;52.130;5.584;2023-09-19T12:29:12;19.80;27.70
11963;DHT22;62678;52.130;5.584;2023-09-19T12:31:48;19.80;25.10
11963;DHT22;62678;52.130;5.584;2023-09-19T12:34:16;19.90;24.40
11963;DHT22;62678;52.130;5.584;2023-09-19T12:36:45;19.90;25.20
11963;DHT22;62678;52.130;5.584;2023-09-19T12:39:22;19.90;26.20
11963;DHT22;62678;52.130;5.584;2023-09-19T12:41:52;20.00;25.00
11963;DHT22;62678;52.130;5.584;2023-09-19T12:44:20;19.90;23.40
11963;DHT22;62678;52.130;5.584;2023-09-19T12:46:47;19.70;29.10
11963;DHT22;62678;52.130;5.584;2023-09-19T12:49:18;19.90;29.10
11963;DHT22;62678;52.130;5.584;2023-09-19T12:51:45;20.00;30.70
11963;DHT22;62678;52.130;5.584;2023-09-19T12:54:13;19.90;32.10
11963;DHT22;62678;52.130;5.584;2023-09-19T12:56:42;19.70;35.80
11963;DHT22;62678;52.130;5.584;2023-09-19T12:59:15;19.40;33.30
11963;DHT22;62678;52.130;5.584;2023-09-19T13:01:42;19.30;52.60
11963;DHT22;62678;52.130;5.584;2023-09-19T13:04:15;19.40;53.80
11963;DHT22;62678;52.130;5.584;2023-09-19T13:06:45;19.30;66.80
11963;DHT22;62678;52.130;5.584;2023-09-19T13:09:14;19.40;62.20
11963;DHT22;62678;52.130;5.584;2023-09-19T13:11:42;19.40;54.40
11963;DHT22;62678;52.130;5.584;2023-09-19T13:14:17;19.50;49.70
11963;DHT22;62678;52.130;5.584;2023-09-19T13:16:58;19.60;54.30
11963;DHT22;62678;52.130;5.584;2023-09-19T13:19:36;19.70;54.10
11963;DHT22;62678;52.130;5.584;2023-09-19T13:22:05;19.90;48.70
11963;DHT22;62678;52.130;5.584;2023-09-19T13:24:34;19.90;51.10
11963;DHT22;62678;52.130;5.584;2023-09-19T13:27:05;19.80;45.40
11963;DHT22;62678;52.130;5.584;2023-09-19T13:29:34;19.60;53.80
11963;DHT22;62678;52.130;5.584;2023-09-19T13:32:01;19.50;55.40
11963;DHT22;62678;52.130;5.584;2023-09-19T13:34:29;19.40;61.20
11963;DHT22;62678;52.130;5.584;2023-09-19T13:36:57;19.50;61.80
11963;DHT22;62678;52.130;5.584;2023-09-19T13:39:24;19.40;60.00
11963;DHT22;62678;52.130;5.584;2023-09-19T13:41:51;19.40;70.50
11963;DHT22;62678;52.130;5.584;2023-09-19T13:44:18;19.40;66.20
11963;DHT22;62678;52.130;5.584;2023-09-19T13:46:46;19.60;55.20
11963;DHT22;62678;52.130;5.584;2023-09-19T13:49:13;19.90;50.60
11963;DHT22;62678;52.130;5.584;2023-09-19T13:51:40;19.90;48.50
11963;DHT22;62678;52.130;5.584;2023-09-19T13:54:09;19.90;51.90
11963;DHT22;62678;52.130;5.584;2023-09-19T13:56:37;20.10;50.40
11963;DHT22;62678;52.130;5.584;2023-09-19T13:59:04;20.20;40.50
11963;DHT22;62678;52.130;5.584;2023-09-19T14:01:31;20.30;41.90
11963;DHT22;62678;52.130;5.584;2023-09-19T14:04:00;20.40;31.00
11963;DHT22;62678;52.130;5.584;2023-09-19T14:06:28;20.30;41.10
11963;DHT22;62678;52.130;5.584;2023-09-19T14:08:54;20.20;38.60
11963;DHT22;62678;52.130;5.584;2023-09-19T14:11:21;20.20;44.00
11963;DHT22;62678;52.130;5.584;2023-09-19T14:13:48;20.10;39.40
11963;DHT22;62678;52.130;5.584;2023-09-19T14:16:16;19.90;41.50
11963;DHT22;62678;52.130;5.584;2023-09-19T14:18:44;19.90;46.20
11963;DHT22;62678;52.130;5.584;2023-09-19T14:21:12;20.00;37.00
11963;DHT22;62678;52.130;5.584;2023-09-19T14:23:40;19.90;36.90
11963;DHT22;62678;52.130;5.584;2023-09-19T14:26:09;19.80;42.30
11963;DHT22;62678;52.130;5.584;2023-09-19T14:28:36;19.80;44.50
11963;DHT22;62678;52.130;5.584;2023-09-19T14:31:05;19.80;50.00
11963;DHT22;62678;52.130;5.584;2023-09-19T14:33:32;19.80;43.10
11963;DHT22;62678;52.130;5.584;2023-09-19T14:36:02;19.70;43.60
11963;DHT22;62678;52.130;5.584;2023-09-19T14:38:32;19.70;47.60
11963;DHT22;62678;52.130;5.584;2023-09-19T14:41:00;19.70;48.10
11963;DHT22;62678;52.130;5.584;2023-09-19T14:43:27;19.70;52.20
11963;DHT22;62678;52.130;5.584;2023-09-19T14:45:55;19.80;47.80
11963;DHT22;62678;52.130;5.584;2023-09-19T14:48:24;19.90;44.60
11963;DHT22;62678;52.130;5.584;2023-09-19T14:50:51;19.80;44.70
11963;DHT22;62678;52.130;5.584;2023-09-19T14:53:19;19.80;47.60
11963;DHT22;62678;52.130;5.584;2023-09-19T14:55:47;19.70;43.90
11963;DHT22;62678;52.130;5.584;2023-09-19T14:58:17;19.60;43.70
11963;DHT22;62678;52.130;5.584;2023-09-19T15:00:44;19.60;48.30
11963;DHT22;62678;52.130;5.584;2023-09-19T15:03:12;19.60;56.80
11963;DHT22;62678;52.130;5.584;2023-09-19T15:05:39;19.60;57.20
11963;DHT22;62678;52.130;5.584;2023-09-19T15:08:06;19.60;58.90
11963;DHT22;62678;52.130;5.584;2023-09-19T15:10:33;19.50;64.50
11963;DHT22;62678;52.130;5.584;2023-09-19T15:13:01;19.40;75.20
11963;DHT22;62678;52.130;5.584;2023-09-19T15:15:31;19.30;90.70
11963;DHT22;62678;52.130;5.584;2023-09-19T15:17:58;19.20;92.30
11963;DHT22;62678;52.130;5.584;2023-09-19T15:20:25;19.10;99.90
11963;DHT22;62678;52.130;5.584;2023-09-19T15:22:52;18.90;99.90
11963;DHT22;62678;52.130;5.584;2023-09-19T15:25:20;18.90;99.90
11963;DHT22;62678;52.130;5.584;2023-09-19T15:27:49;18.90;99.90
11963;DHT22;62678;52.130;5.584;2023-09-19T15:30:18;18.90;99.90
11963;DHT22;62678;52.130;5.584;2023-09-19T15:32:54;19.00;99.90
11963;DHT22;62678;52.130;5.584;2023-09-19T15:35:21;19.10;99.90
11963;DHT22;62678;52.130;5.584;2023-09-19T15:37:48;19.20;99.90
11963;DHT22;62678;52.130;5.584;2023-09-19T15:40:15;19.20;99.90
11963;DHT22;62678;52.130;5.584;2023-09-19T15:42:43;19.10;99.90
11963;DHT22;62678;52.130;5.584;2023-09-19T15:45:10;18.70;99.90
11963;DHT22;62678;52.130;5.584;2023-09-19T15:47:39;18.50;99.90
11963;DHT22;62678;52.130;5.584;2023-09-19T15:50:07;18.40;99.90
11963;DHT22;62678;52.130;5.584;2023-09-19T15:52:35;18.60;99.90
11963;DHT22;62678;52.130;5.584;2023-09-19T15:55:04;18.60;99.90
11963;DHT22;62678;52.130;5.584;2023-09-19T15:57:32;18.70;99.90